QFA124 VABB-YSSY
Flight info
| Callsign | QFA124 |
|---|---|
| Flight time | N/A |
| Altitude | 35000 |
| Route | VEVAK2A MABTA B211 MMV L896 PAKRA/N0482F370 L896 ESLOG/N0474F390 L896 SAPDA G222 PKS/N0393F190 W440 AKMIR W113 ODALE |
| Aircraft | A332/H-SDE3GHIJ2J3J5M1RVWXY/LB2D1 |
Departure
| Time | 2026-04-29 14:19 |
|---|---|
| Airport | Chhatrapati Shivaji Maharaj International Airport (VABB) |
Arrival
| Time | N/A |
|---|---|
| Airport | Sydney Kingsford Smith International Airport (YSSY) |
| Time | Latitude | Longitude | Altitude | Speed | Heading |
|---|---|---|---|---|---|
| 2026-04-29 13:16 | 19.09415 | 72.87287 | 53 ft | 0 kts | 299° |
| 2026-04-29 14:07 | 19.09414 | 72.87287 | 53 ft | 1 kts | 299° |
| 2026-04-29 14:07 | 19.09403 | 72.87310 | 51 ft | 4 kts | 299° |
| 2026-04-29 14:07 | 19.09389 | 72.87335 | 46 ft | 4 kts | 299° |
| 2026-04-29 14:07 | 19.09379 | 72.87355 | 45 ft | 4 kts | 294° |
| 2026-04-29 14:08 | 19.09376 | 72.87379 | 45 ft | 4 kts | 241° |
| 2026-04-29 14:08 | 19.09384 | 72.87392 | 48 ft | 4 kts | 225° |
| 2026-04-29 14:08 | 19.09364 | 72.87373 | 45 ft | 4 kts | 216° |
| 2026-04-29 14:08 | 19.09339 | 72.87364 | 48 ft | 4 kts | 190° |
| 2026-04-29 14:09 | 19.09322 | 72.87363 | 48 ft | 0 kts | 179° |
| 2026-04-29 14:12 | 19.09314 | 72.87363 | 49 ft | 6 kts | 179° |
| 2026-04-29 14:13 | 19.09265 | 72.87351 | 47 ft | 8 kts | 212° |
| 2026-04-29 14:13 | 19.09238 | 72.87301 | 48 ft | 9 kts | 242° |
| 2026-04-29 14:13 | 19.09184 | 72.87266 | 51 ft | 10 kts | 188° |
| 2026-04-29 14:13 | 19.09106 | 72.87265 | 52 ft | 12 kts | 178° |
| 2026-04-29 14:14 | 19.09054 | 72.87310 | 48 ft | 11 kts | 102° |
| 2026-04-29 14:14 | 19.09051 | 72.87395 | 48 ft | 12 kts | 90° |
| 2026-04-29 14:14 | 19.09052 | 72.87489 | 48 ft | 13 kts | 90° |
| 2026-04-29 14:14 | 19.09053 | 72.87590 | 48 ft | 14 kts | 88° |
| 2026-04-29 14:15 | 19.09055 | 72.87694 | 47 ft | 15 kts | 89° |
| 2026-04-29 14:15 | 19.09057 | 72.87803 | 47 ft | 15 kts | 89° |
| 2026-04-29 14:15 | 19.09058 | 72.87913 | 52 ft | 15 kts | 89° |
| 2026-04-29 14:15 | 19.09060 | 72.87998 | 52 ft | 7 kts | 89° |
| 2026-04-29 14:16 | 19.09052 | 72.88036 | 48 ft | 4 kts | 125° |
| 2026-04-29 14:16 | 19.09027 | 72.88048 | 51 ft | 4 kts | 167° |
| 2026-04-29 14:16 | 19.09023 | 72.88049 | 52 ft | 1 kts | 170° |
| 2026-04-29 14:16 | 19.09016 | 72.88050 | 48 ft | 2 kts | 170° |
| 2026-04-29 14:17 | 19.08984 | 72.88052 | 48 ft | 8 kts | 179° |
| 2026-04-29 14:17 | 19.08926 | 72.88052 | 49 ft | 9 kts | 180° |
| 2026-04-29 14:17 | 19.08890 | 72.88026 | 50 ft | 5 kts | 250° |
| 2026-04-29 14:17 | 19.08889 | 72.87991 | 48 ft | 4 kts | 269° |
| 2026-04-29 14:18 | 19.08889 | 72.87964 | 51 ft | 3 kts | 269° |
| 2026-04-29 14:18 | 19.08886 | 72.87851 | 52 ft | 39 kts | 269° |
| 2026-04-29 14:18 | 19.08878 | 72.87370 | 54 ft | 91 kts | 269° |
| 2026-04-29 14:18 | 19.08868 | 72.86531 | 46 ft | 137 kts | 269° |
| 2026-04-29 14:19 | 19.08859 | 72.85405 | 216 ft | 161 kts | 268° |
| 2026-04-29 14:19 | 19.08862 | 72.84198 | 672 ft | 165 kts | 271° |
| 2026-04-29 14:19 | 19.08875 | 72.82977 | 1182 ft | 168 kts | 271° |
| 2026-04-29 14:19 | 19.08889 | 72.81728 | 1703 ft | 172 kts | 270° |
| 2026-04-29 14:20 | 19.08912 | 72.80414 | 2041 ft | 182 kts | 271° |
| 2026-04-29 14:20 | 19.08916 | 72.79045 | 2305 ft | 191 kts | 269° |
| 2026-04-29 14:20 | 19.08858 | 72.77593 | 2495 ft | 203 kts | 267° |
| 2026-04-29 14:20 | 19.08765 | 72.76047 | 2606 ft | 219 kts | 268° |
| 2026-04-29 14:21 | 19.08592 | 72.74415 | 2752 ft | 234 kts | 258° |
| 2026-04-29 14:21 | 19.07890 | 72.72798 | 2878 ft | 254 kts | 233° |
| 2026-04-29 14:21 | 19.06457 | 72.71622 | 3138 ft | 270 kts | 204° |
| 2026-04-29 14:21 | 19.04591 | 72.71332 | 3570 ft | 278 kts | 174° |
| 2026-04-29 14:22 | 19.02739 | 72.71990 | 3974 ft | 285 kts | 154° |
| 2026-04-29 14:22 | 19.00990 | 72.72990 | 4465 ft | 287 kts | 151° |
| 2026-04-29 14:22 | 18.99240 | 72.74032 | 4933 ft | 290 kts | 153° |
| 2026-04-29 14:22 | 18.97343 | 72.74723 | 5379 ft | 289 kts | 175° |
| 2026-04-29 14:23 | 18.95327 | 72.74812 | 5843 ft | 291 kts | 183° |
| 2026-04-29 14:23 | 18.93289 | 72.74755 | 6334 ft | 293 kts | 185° |
| 2026-04-29 14:23 | 18.91253 | 72.74688 | 6898 ft | 292 kts | 182° |
| 2026-04-29 14:23 | 18.89234 | 72.74938 | 7469 ft | 295 kts | 167° |
| 2026-04-29 14:24 | 18.87317 | 72.75723 | 8043 ft | 296 kts | 156° |
| 2026-04-29 14:24 | 18.85497 | 72.76750 | 8638 ft | 297 kts | 152° |
| 2026-04-29 14:24 | 18.83744 | 72.77912 | 9241 ft | 298 kts | 149° |
| 2026-04-29 14:24 | 18.82027 | 72.79137 | 9823 ft | 298 kts | 148° |
| 2026-04-29 14:25 | 18.80292 | 72.80400 | 10144 ft | 309 kts | 148° |
| 2026-04-29 14:25 | 18.78477 | 72.81712 | 10347 ft | 323 kts | 148° |
| 2026-04-29 14:25 | 18.76575 | 72.83070 | 10561 ft | 337 kts | 148° |
| 2026-04-29 14:25 | 18.74593 | 72.84466 | 10739 ft | 350 kts | 148° |
| 2026-04-29 14:26 | 18.72524 | 72.85911 | 10922 ft | 362 kts | 148° |
| 2026-04-29 14:26 | 18.70393 | 72.87392 | 11095 ft | 373 kts | 148° |
| 2026-04-29 14:26 | 18.68193 | 72.88918 | 11286 ft | 383 kts | 148° |
| 2026-04-29 14:26 | 18.65942 | 72.90477 | 11547 ft | 390 kts | 148° |
| 2026-04-29 14:27 | 18.63664 | 72.92057 | 11892 ft | 394 kts | 147° |
| 2026-04-29 14:27 | 18.61371 | 72.93648 | 12291 ft | 396 kts | 148° |
| 2026-04-29 14:27 | 18.59060 | 72.95249 | 12647 ft | 399 kts | 147° |
| 2026-04-29 14:28 | 18.54390 | 72.98486 | 13385 ft | 405 kts | 147° |
| 2026-04-29 14:28 | 18.52026 | 73.00123 | 13720 ft | 408 kts | 147° |
| 2026-04-29 14:28 | 18.49647 | 73.01770 | 14059 ft | 410 kts | 147° |
| 2026-04-29 14:28 | 18.47262 | 73.03421 | 14395 ft | 411 kts | 147° |
| 2026-04-29 14:29 | 18.44860 | 73.05082 | 14705 ft | 414 kts | 147° |
| 2026-04-29 14:29 | 18.42444 | 73.06752 | 15028 ft | 416 kts | 147° |
| 2026-04-29 14:29 | 18.40015 | 73.08431 | 15351 ft | 419 kts | 147° |
| 2026-04-29 14:29 | 18.37570 | 73.10120 | 15668 ft | 422 kts | 147° |
| 2026-04-29 14:30 | 18.35110 | 73.11819 | 15970 ft | 424 kts | 147° |
| 2026-04-29 14:30 | 18.32641 | 73.13523 | 16335 ft | 425 kts | 146° |
| 2026-04-29 14:30 | 18.30164 | 73.15233 | 16666 ft | 427 kts | 146° |
| 2026-04-29 14:30 | 18.27674 | 73.16951 | 16982 ft | 429 kts | 146° |
| 2026-04-29 14:31 | 18.25172 | 73.18677 | 17295 ft | 431 kts | 146° |
| 2026-04-29 14:31 | 18.22656 | 73.20412 | 17606 ft | 433 kts | 146° |
| 2026-04-29 14:31 | 18.20127 | 73.22155 | 17903 ft | 436 kts | 146° |
| 2026-04-29 14:31 | 18.17586 | 73.23907 | 18194 ft | 438 kts | 146° |
| 2026-04-29 14:32 | 18.15031 | 73.25667 | 18463 ft | 440 kts | 146° |
| 2026-04-29 14:32 | 18.12467 | 73.27432 | 18718 ft | 442 kts | 146° |
| 2026-04-29 14:32 | 18.09886 | 73.29207 | 18966 ft | 444 kts | 146° |
| 2026-04-29 14:32 | 18.07292 | 73.30991 | 19206 ft | 447 kts | 146° |
| 2026-04-29 14:33 | 18.04680 | 73.32786 | 19429 ft | 450 kts | 146° |
| 2026-04-29 14:33 | 18.02057 | 73.34590 | 19693 ft | 451 kts | 146° |
| 2026-04-29 14:33 | 17.99424 | 73.36400 | 19947 ft | 453 kts | 146° |
| 2026-04-29 14:33 | 17.96781 | 73.38217 | 20218 ft | 455 kts | 146° |
| 2026-04-29 14:34 | 17.94126 | 73.40040 | 20464 ft | 457 kts | 146° |
| 2026-04-29 14:34 | 17.91460 | 73.41871 | 20718 ft | 459 kts | 146° |
| 2026-04-29 14:34 | 17.88782 | 73.43709 | 20978 ft | 461 kts | 146° |
| 2026-04-29 14:34 | 17.86093 | 73.45553 | 21224 ft | 463 kts | 146° |
| 2026-04-29 14:35 | 17.83393 | 73.47405 | 21469 ft | 464 kts | 146° |
| 2026-04-29 14:35 | 17.80687 | 73.49260 | 21718 ft | 467 kts | 146° |
| 2026-04-29 14:35 | 17.78000 | 73.51102 | 21973 ft | 468 kts | 146° |
| 2026-04-29 14:35 | 17.75266 | 73.52975 | 22242 ft | 470 kts | 146° |
| 2026-04-29 14:36 | 17.72520 | 73.54855 | 22495 ft | 472 kts | 146° |
| 2026-04-29 14:36 | 17.69760 | 73.56744 | 22723 ft | 475 kts | 146° |
| 2026-04-29 14:36 | 17.66987 | 73.58642 | 22966 ft | 477 kts | 146° |
| 2026-04-29 14:36 | 17.64203 | 73.60547 | 23218 ft | 479 kts | 146° |
| 2026-04-29 14:37 | 17.61406 | 73.62460 | 23452 ft | 481 kts | 146° |
| 2026-04-29 14:37 | 17.58596 | 73.64380 | 23657 ft | 483 kts | 146° |
| 2026-04-29 14:37 | 17.55778 | 73.66305 | 23880 ft | 484 kts | 147° |
| 2026-04-29 14:37 | 17.52950 | 73.68236 | 24081 ft | 486 kts | 147° |
| 2026-04-29 14:38 | 17.50111 | 73.70174 | 24302 ft | 488 kts | 147° |
| 2026-04-29 14:38 | 17.47265 | 73.72116 | 24507 ft | 489 kts | 147° |
| 2026-04-29 14:38 | 17.44409 | 73.74064 | 24695 ft | 491 kts | 147° |
| 2026-04-29 14:38 | 17.41542 | 73.76019 | 24873 ft | 493 kts | 147° |
| 2026-04-29 14:39 | 17.38664 | 73.77982 | 25045 ft | 495 kts | 147° |
| 2026-04-29 14:39 | 17.35772 | 73.79952 | 25203 ft | 497 kts | 147° |
| 2026-04-29 14:39 | 17.32870 | 73.81929 | 25397 ft | 498 kts | 147° |
| 2026-04-29 14:39 | 17.29962 | 73.83909 | 25597 ft | 500 kts | 147° |
| 2026-04-29 14:40 | 17.27043 | 73.85895 | 25756 ft | 502 kts | 147° |
| 2026-04-29 14:40 | 17.24113 | 73.87888 | 25943 ft | 503 kts | 147° |
| 2026-04-29 14:40 | 17.21175 | 73.89886 | 26097 ft | 505 kts | 147° |
| 2026-04-29 14:40 | 17.18228 | 73.91890 | 26288 ft | 506 kts | 147° |
| 2026-04-29 14:41 | 17.15280 | 73.93893 | 26467 ft | 507 kts | 147° |
| 2026-04-29 14:41 | 17.12311 | 73.95910 | 26634 ft | 509 kts | 147° |
| 2026-04-29 14:41 | 17.09338 | 73.97929 | 26788 ft | 510 kts | 147° |
| 2026-04-29 14:41 | 17.06362 | 73.99949 | 27018 ft | 510 kts | 147° |
| 2026-04-29 14:42 | 17.03381 | 74.01972 | 27200 ft | 511 kts | 147° |
| 2026-04-29 14:42 | 17.00393 | 74.03999 | 27354 ft | 513 kts | 147° |
| 2026-04-29 14:42 | 16.97395 | 74.06032 | 27521 ft | 514 kts | 147° |
| 2026-04-29 14:42 | 16.94389 | 74.08069 | 27688 ft | 516 kts | 147° |
| 2026-04-29 14:43 | 16.91423 | 74.10186 | 27819 ft | 517 kts | 142° |
| 2026-04-29 14:43 | 16.88736 | 74.12687 | 27986 ft | 519 kts | 133° |
| 2026-04-29 14:43 | 16.86448 | 74.15605 | 28146 ft | 520 kts | 126° |
| 2026-04-29 14:43 | 16.84372 | 74.18703 | 28292 ft | 521 kts | 123° |
| 2026-04-29 14:44 | 16.82379 | 74.21882 | 28439 ft | 523 kts | 122° |
| 2026-04-29 14:44 | 16.80433 | 74.25090 | 28581 ft | 524 kts | 121° |
| 2026-04-29 14:44 | 16.78497 | 74.28314 | 28762 ft | 524 kts | 121° |
| 2026-04-29 14:44 | 16.76564 | 74.31529 | 29063 ft | 522 kts | 122° |
| 2026-04-29 14:45 | 16.74656 | 74.34683 | 29290 ft | 521 kts | 122° |
| 2026-04-29 14:45 | 16.72715 | 74.37874 | 29474 ft | 521 kts | 122° |
| 2026-04-29 14:45 | 16.70767 | 74.41059 | 29612 ft | 522 kts | 122° |
| 2026-04-29 14:45 | 16.68804 | 74.44259 | 29799 ft | 522 kts | 122° |
| 2026-04-29 14:46 | 16.66843 | 74.47449 | 29978 ft | 522 kts | 122° |
| 2026-04-29 14:46 | 16.64888 | 74.50627 | 30153 ft | 521 kts | 122° |
| 2026-04-29 14:46 | 16.62931 | 74.53807 | 30326 ft | 520 kts | 122° |
| 2026-04-29 14:46 | 16.60978 | 74.56981 | 30524 ft | 520 kts | 122° |
| 2026-04-29 14:47 | 16.59027 | 74.60149 | 30707 ft | 519 kts | 122° |
| 2026-04-29 14:47 | 16.57081 | 74.63310 | 30892 ft | 518 kts | 122° |
| 2026-04-29 14:47 | 16.55137 | 74.66465 | 31066 ft | 517 kts | 122° |
| 2026-04-29 14:47 | 16.53849 | 74.68555 | 31172 ft | 516 kts | 122° |
| 2026-04-29 14:48 | 16.51256 | 74.72761 | 31418 ft | 515 kts | 122° |
| 2026-04-29 14:48 | 16.49319 | 74.75901 | 31603 ft | 515 kts | 122° |
| 2026-04-29 14:48 | 16.47385 | 74.79036 | 31764 ft | 514 kts | 122° |
| 2026-04-29 14:48 | 16.45451 | 74.82168 | 31918 ft | 514 kts | 122° |
| 2026-04-29 14:49 | 16.43518 | 74.85298 | 32069 ft | 514 kts | 122° |
| 2026-04-29 14:49 | 16.39652 | 74.91554 | 32401 ft | 512 kts | 122° |
| 2026-04-29 14:49 | 16.38377 | 74.93614 | 32526 ft | 512 kts | 122° |
| 2026-04-29 14:50 | 16.36449 | 74.96731 | 32663 ft | 512 kts | 122° |
| 2026-04-29 14:50 | 16.34520 | 74.99849 | 32801 ft | 512 kts | 122° |
| 2026-04-29 14:50 | 16.32592 | 75.02962 | 32975 ft | 511 kts | 122° |
| 2026-04-29 14:50 | 16.30669 | 75.06066 | 33171 ft | 510 kts | 122° |
| 2026-04-29 14:51 | 16.28746 | 75.09169 | 33258 ft | 510 kts | 122° |
| 2026-04-29 14:51 | 16.26821 | 75.12274 | 33401 ft | 510 kts | 122° |
| 2026-04-29 14:51 | 16.24898 | 75.15375 | 33552 ft | 509 kts | 122° |
| 2026-04-29 14:51 | 16.22978 | 75.18469 | 33733 ft | 509 kts | 122° |
| 2026-04-29 14:52 | 16.21058 | 75.21562 | 33821 ft | 509 kts | 122° |
| 2026-04-29 14:52 | 16.19135 | 75.24658 | 33934 ft | 509 kts | 122° |
| 2026-04-29 14:52 | 16.17215 | 75.27748 | 34103 ft | 507 kts | 122° |
| 2026-04-29 14:52 | 16.15308 | 75.30816 | 34267 ft | 505 kts | 122° |
| 2026-04-29 14:53 | 16.13399 | 75.33885 | 34385 ft | 506 kts | 122° |
| 2026-04-29 14:53 | 16.10871 | 75.37949 | 34543 ft | 505 kts | 122° |
| 2026-04-29 14:53 | 16.09583 | 75.40018 | 34703 ft | 503 kts | 122° |
| 2026-04-29 14:53 | 16.07685 | 75.43067 | 34820 ft | 502 kts | 123° |
| 2026-04-29 14:54 | 16.05782 | 75.46121 | 34835 ft | 504 kts | 123° |
| 2026-04-29 14:54 | 16.01960 | 75.52254 | 34829 ft | 506 kts | 123° |
| 2026-04-29 14:55 | 15.98129 | 75.58396 | 34834 ft | 506 kts | 123° |
| 2026-04-29 14:55 | 15.94305 | 75.64520 | 34827 ft | 506 kts | 123° |
| 2026-04-29 14:56 | 15.90501 | 75.70609 | 34828 ft | 506 kts | 123° |
| 2026-04-29 14:56 | 15.86669 | 75.76735 | 34828 ft | 506 kts | 123° |
| 2026-04-29 14:57 | 15.82837 | 75.82859 | 34830 ft | 506 kts | 123° |
| 2026-04-29 14:57 | 15.79010 | 75.88968 | 34832 ft | 505 kts | 123° |
| 2026-04-29 14:58 | 15.75177 | 75.95082 | 34830 ft | 506 kts | 123° |
| 2026-04-29 14:58 | 15.71342 | 76.01196 | 34834 ft | 505 kts | 123° |
| 2026-04-29 14:59 | 15.67503 | 76.07307 | 34830 ft | 506 kts | 123° |
| 2026-04-29 14:59 | 15.63666 | 76.13414 | 34826 ft | 505 kts | 123° |
| 2026-04-29 15:00 | 15.59829 | 76.19513 | 34826 ft | 505 kts | 123° |
| 2026-04-29 15:00 | 15.55990 | 76.25611 | 34807 ft | 505 kts | 123° |
| 2026-04-29 15:01 | 15.52162 | 76.31688 | 34817 ft | 503 kts | 123° |
| 2026-04-29 15:01 | 15.48340 | 76.37749 | 34818 ft | 502 kts | 123° |
| 2026-04-29 15:02 | 15.44519 | 76.43804 | 34817 ft | 502 kts | 123° |
| 2026-04-29 15:02 | 15.40722 | 76.49816 | 34819 ft | 502 kts | 123° |
| 2026-04-29 15:03 | 15.36891 | 76.55877 | 34838 ft | 504 kts | 124° |
| 2026-04-29 15:03 | 15.33042 | 76.61963 | 34837 ft | 505 kts | 124° |
| 2026-04-29 15:04 | 15.29192 | 76.68044 | 34834 ft | 505 kts | 124° |
| 2026-04-29 15:04 | 15.25337 | 76.74130 | 34835 ft | 505 kts | 124° |
| 2026-04-29 15:05 | 15.21479 | 76.80215 | 34856 ft | 504 kts | 124° |
| 2026-04-29 15:05 | 15.17640 | 76.86266 | 34858 ft | 502 kts | 124° |
| 2026-04-29 15:06 | 15.13765 | 76.92316 | 34858 ft | 507 kts | 125° |
| 2026-04-29 15:06 | 15.09825 | 76.98395 | 34869 ft | 510 kts | 125° |
| 2026-04-29 15:07 | 15.05868 | 77.04492 | 34871 ft | 511 kts | 125° |
| 2026-04-29 15:07 | 15.01911 | 77.10593 | 34864 ft | 510 kts | 125° |
| 2026-04-29 15:08 | 14.97955 | 77.16692 | 34883 ft | 511 kts | 125° |
| 2026-04-29 15:08 | 14.94008 | 77.22774 | 34881 ft | 509 kts | 125° |
| 2026-04-29 15:09 | 14.90043 | 77.28879 | 34876 ft | 512 kts | 124° |
| 2026-04-29 15:09 | 14.86071 | 77.34990 | 34886 ft | 512 kts | 124° |
| 2026-04-29 15:10 | 14.82098 | 77.41097 | 34879 ft | 512 kts | 124° |
| 2026-04-29 15:10 | 14.78122 | 77.47204 | 34880 ft | 512 kts | 125° |
| 2026-04-29 15:11 | 14.74143 | 77.53312 | 34879 ft | 512 kts | 124° |
| 2026-04-29 15:11 | 14.70165 | 77.59412 | 34885 ft | 512 kts | 124° |
| 2026-04-29 15:12 | 14.66183 | 77.65513 | 34879 ft | 513 kts | 124° |
| 2026-04-29 15:12 | 14.62197 | 77.71617 | 34875 ft | 513 kts | 124° |
| 2026-04-29 15:13 | 14.58216 | 77.77710 | 34883 ft | 510 kts | 125° |
| 2026-04-29 15:13 | 14.54251 | 77.83772 | 34883 ft | 509 kts | 125° |
| 2026-04-29 15:14 | 14.50289 | 77.89824 | 34881 ft | 509 kts | 125° |
| 2026-04-29 15:14 | 14.46324 | 77.95876 | 34883 ft | 509 kts | 125° |
| 2026-04-29 15:15 | 14.42354 | 78.01933 | 34881 ft | 510 kts | 125° |
| 2026-04-29 15:15 | 14.38374 | 78.08000 | 34886 ft | 511 kts | 125° |
| 2026-04-29 15:16 | 14.34392 | 78.14066 | 34885 ft | 511 kts | 125° |
| 2026-04-29 15:16 | 14.30407 | 78.20131 | 34884 ft | 511 kts | 125° |
| 2026-04-29 15:17 | 14.26447 | 78.26154 | 34872 ft | 511 kts | 125° |
| 2026-04-29 15:17 | 14.22450 | 78.32232 | 34872 ft | 513 kts | 125° |
| 2026-04-29 15:18 | 14.18447 | 78.38315 | 34884 ft | 513 kts | 125° |
| 2026-04-29 15:18 | 14.14442 | 78.44396 | 34873 ft | 513 kts | 125° |
| 2026-04-29 15:19 | 14.10435 | 78.50475 | 34874 ft | 513 kts | 125° |
| 2026-04-29 15:19 | 14.06428 | 78.56551 | 34884 ft | 513 kts | 125° |
| 2026-04-29 15:20 | 14.02412 | 78.62621 | 34883 ft | 513 kts | 126° |
| 2026-04-29 15:20 | 13.98357 | 78.68662 | 34881 ft | 513 kts | 126° |
| 2026-04-29 15:21 | 13.94290 | 78.74693 | 34874 ft | 514 kts | 126° |
| 2026-04-29 15:21 | 13.90225 | 78.80725 | 34879 ft | 512 kts | 126° |
| 2026-04-29 15:22 | 13.86171 | 78.86741 | 34863 ft | 511 kts | 126° |
| 2026-04-29 15:22 | 13.82117 | 78.92754 | 34860 ft | 511 kts | 126° |
| 2026-04-29 15:23 | 13.78063 | 78.98765 | 34856 ft | 511 kts | 126° |
| 2026-04-29 15:23 | 13.74007 | 79.04773 | 34854 ft | 511 kts | 126° |
| 2026-04-29 15:24 | 13.69939 | 79.10796 | 34855 ft | 513 kts | 126° |
| 2026-04-29 15:24 | 13.65861 | 79.16828 | 34846 ft | 515 kts | 126° |
| 2026-04-29 15:25 | 13.61801 | 79.22830 | 34826 ft | 514 kts | 126° |
| 2026-04-29 15:25 | 13.57728 | 79.28848 | 34817 ft | 511 kts | 126° |
| 2026-04-29 15:26 | 13.53675 | 79.34832 | 34812 ft | 510 kts | 126° |
| 2026-04-29 15:26 | 13.49621 | 79.40811 | 34810 ft | 510 kts | 126° |
| 2026-04-29 15:27 | 13.45564 | 79.46792 | 34804 ft | 511 kts | 126° |
| 2026-04-29 15:27 | 13.41499 | 79.52781 | 34799 ft | 508 kts | 126° |
| 2026-04-29 15:28 | 13.37486 | 79.58691 | 34823 ft | 505 kts | 126° |
| 2026-04-29 15:28 | 13.33449 | 79.64628 | 34956 ft | 508 kts | 126° |
| 2026-04-29 15:28 | 13.31427 | 79.67601 | 35065 ft | 508 kts | 126° |
| 2026-04-29 15:29 | 13.29405 | 79.70573 | 35159 ft | 508 kts | 126° |
| 2026-04-29 15:29 | 13.25381 | 79.76485 | 35622 ft | 501 kts | 126° |
| 2026-04-29 15:30 | 13.21386 | 79.82351 | 35780 ft | 503 kts | 127° |
| 2026-04-29 15:30 | 13.17361 | 79.88255 | 35902 ft | 505 kts | 127° |
| 2026-04-29 15:30 | 13.15348 | 79.91208 | 36026 ft | 505 kts | 127° |
| 2026-04-29 15:31 | 13.13337 | 79.94157 | 36143 ft | 504 kts | 127° |
| 2026-04-29 15:31 | 13.11354 | 79.97064 | 36265 ft | 504 kts | 127° |
| 2026-04-29 15:31 | 13.09346 | 80.00006 | 36384 ft | 503 kts | 127° |
| 2026-04-29 15:32 | 13.05331 | 80.05886 | 36579 ft | 503 kts | 127° |
| 2026-04-29 15:32 | 13.01318 | 80.11758 | 36767 ft | 502 kts | 127° |
| 2026-04-29 15:33 | 12.97055 | 80.17433 | 36801 ft | 502 kts | 133° |
| 2026-04-29 15:33 | 12.92483 | 80.22847 | 36801 ft | 501 kts | 134° |
| 2026-04-29 15:34 | 12.87875 | 80.28188 | 36804 ft | 499 kts | 134° |
| 2026-04-29 15:34 | 12.83274 | 80.33510 | 36809 ft | 499 kts | 134° |
| 2026-04-29 15:35 | 12.78677 | 80.38838 | 36814 ft | 499 kts | 134° |
| 2026-04-29 15:35 | 12.74082 | 80.44169 | 36825 ft | 499 kts | 134° |
| 2026-04-29 15:36 | 12.69491 | 80.49494 | 36826 ft | 499 kts | 134° |
| 2026-04-29 15:36 | 12.65668 | 80.53925 | 36826 ft | 499 kts | 134° |
| 2026-04-29 15:37 | 12.61072 | 80.59250 | 36826 ft | 499 kts | 134° |
| 2026-04-29 15:37 | 12.56481 | 80.64565 | 36831 ft | 498 kts | 134° |
| 2026-04-29 15:38 | 12.51156 | 80.70727 | 36834 ft | 497 kts | 134° |
| 2026-04-29 15:38 | 12.47315 | 80.75168 | 36837 ft | 497 kts | 134° |
| 2026-04-29 15:39 | 12.42730 | 80.80466 | 36846 ft | 497 kts | 134° |
| 2026-04-29 15:39 | 12.38176 | 80.85727 | 36848 ft | 497 kts | 134° |
| 2026-04-29 15:40 | 12.33590 | 80.91021 | 36857 ft | 497 kts | 134° |
| 2026-04-29 15:40 | 12.29007 | 80.96309 | 36859 ft | 496 kts | 134° |
| 2026-04-29 15:41 | 12.24430 | 81.01587 | 36861 ft | 496 kts | 134° |
| 2026-04-29 15:41 | 12.19855 | 81.06859 | 36861 ft | 495 kts | 134° |
| 2026-04-29 15:42 | 12.15279 | 81.12129 | 36860 ft | 496 kts | 134° |
| 2026-04-29 15:42 | 12.10702 | 81.17397 | 36863 ft | 495 kts | 134° |
| 2026-04-29 15:43 | 12.06125 | 81.22663 | 36863 ft | 495 kts | 134° |
| 2026-04-29 15:43 | 12.01547 | 81.27928 | 36866 ft | 495 kts | 134° |
| 2026-04-29 15:44 | 11.96972 | 81.33185 | 36864 ft | 496 kts | 134° |
| 2026-04-29 15:44 | 11.92416 | 81.38418 | 36869 ft | 496 kts | 134° |
| 2026-04-29 15:45 | 11.87834 | 81.43677 | 36870 ft | 495 kts | 134° |
| 2026-04-29 15:45 | 11.83266 | 81.48919 | 36870 ft | 494 kts | 134° |
| 2026-04-29 15:46 | 11.78694 | 81.54161 | 36872 ft | 494 kts | 134° |
| 2026-04-29 15:46 | 11.74121 | 81.59402 | 36878 ft | 494 kts | 134° |
| 2026-04-29 15:47 | 11.69548 | 81.64640 | 36875 ft | 494 kts | 134° |
| 2026-04-29 15:47 | 11.64975 | 81.69876 | 36872 ft | 494 kts | 134° |
| 2026-04-29 15:48 | 11.60400 | 81.75110 | 36879 ft | 494 kts | 134° |
| 2026-04-29 15:48 | 11.55824 | 81.80343 | 36882 ft | 494 kts | 134° |
| 2026-04-29 15:49 | 11.51247 | 81.85574 | 36878 ft | 494 kts | 134° |
| 2026-04-29 15:49 | 11.46669 | 81.90804 | 36881 ft | 494 kts | 134° |
| 2026-04-29 15:50 | 11.42091 | 81.96032 | 36880 ft | 494 kts | 134° |
| 2026-04-29 15:50 | 11.37518 | 82.01251 | 36879 ft | 494 kts | 134° |
| 2026-04-29 15:51 | 11.32933 | 82.06480 | 36881 ft | 494 kts | 134° |
| 2026-04-29 15:51 | 11.28383 | 82.11667 | 36888 ft | 494 kts | 134° |
| 2026-04-29 15:52 | 11.23801 | 82.16888 | 36887 ft | 494 kts | 134° |
| 2026-04-29 15:52 | 11.19220 | 82.22105 | 36881 ft | 493 kts | 134° |
| 2026-04-29 15:53 | 11.14656 | 82.27300 | 36884 ft | 491 kts | 134° |